Aviation Digital Data Service (ADDS)

Output produced by METARs form (0243 UTC 24 July 2017)
found at http://www.aviationweather.gov/adds/metars/
 
MYGF 232255Z 2400/2500 VRB01KT 9999 VCSH SCT018 BKN210 
     FM240600 15005KT 9999 FEW025 SCT250
       
MYNN 232255Z 2400/2500 10007KT FEW016CB FEW018 SCT220 
     FM241200 13005KT 9999 FEW018CB SCT060 BKN250